sensor_id;sensor_type;location;lat;lon;timestamp;pressure;altitude;pressure_sealevel;temperature;humidity
35704;BME280;21820;51.112;13.762;2023-06-26T00:01:14;99506.84;;;24.79;59.86
35704;BME280;21820;51.112;13.762;2023-06-26T00:03:40;99516.41;;;24.88;59.95
35704;BME280;21820;51.112;13.762;2023-06-26T00:06:05;99515.59;;;24.88;59.99
35704;BME280;21820;51.112;13.762;2023-06-26T00:08:30;99519.22;;;24.87;59.46
35704;BME280;21820;51.112;13.762;2023-06-26T00:10:56;99510.50;;;24.86;59.58
35704;BME280;21820;51.112;13.762;2023-06-26T00:13:22;99502.75;;;24.85;59.79
35704;BME280;21820;51.112;13.762;2023-06-26T00:15:48;99503.44;;;24.87;59.86
35704;BME280;21820;51.112;13.762;2023-06-26T00:18:13;99505.91;;;24.88;59.12
35704;BME280;21820;51.112;13.762;2023-06-26T00:20:39;99502.75;;;24.85;59.64
35704;BME280;21820;51.112;13.762;2023-06-26T00:23:04;99503.44;;;24.87;59.42
35704;BME280;21820;51.112;13.762;2023-06-26T00:25:35;99496.53;;;24.86;59.82
35704;BME280;21820;51.112;13.762;2023-06-26T00:28:00;99491.13;;;24.87;59.73
35704;BME280;21820;51.112;13.762;2023-06-26T00:30:26;99497.34;;;24.86;59.50
35704;BME280;21820;51.112;13.762;2023-06-26T00:32:51;99498.16;;;24.87;59.29
35704;BME280;21820;51.112;13.762;2023-06-26T00:35:17;99494.88;;;24.85;59.61
35704;BME280;21820;51.112;13.762;2023-06-26T00:37:42;99504.25;;;24.87;59.15
35704;BME280;21820;51.112;13.762;2023-06-26T00:40:08;99500.81;;;24.87;59.91
35704;BME280;21820;51.112;13.762;2023-06-26T00:42:34;99497.34;;;24.86;59.72
35704;BME280;21820;51.112;13.762;2023-06-26T00:44:59;99493.91;;;24.86;59.08
35704;BME280;21820;51.112;13.762;2023-06-26T00:47:25;99499.97;;;24.86;59.48
35704;BME280;21820;51.112;13.762;2023-06-26T00:49:51;99487.81;;;24.85;59.67
35704;BME280;21820;51.112;13.762;2023-06-26T00:52:17;99485.53;;;24.82;60.05
35704;BME280;21820;51.112;13.762;2023-06-26T00:54:43;99468.56;;;24.77;59.61
35704;BME280;21820;51.112;13.762;2023-06-26T00:57:08;99483.22;;;24.87;59.83
35704;BME280;21820;51.112;13.762;2023-06-26T00:59:34;99481.72;;;24.85;59.12
35704;BME280;21820;51.112;13.762;2023-06-26T01:02:00;99468.56;;;24.77;59.80
35704;BME280;21820;51.112;13.762;2023-06-26T01:04:26;99488.66;;;24.86;59.26
35704;BME280;21820;51.112;13.762;2023-06-26T01:06:54;99488.78;;;24.84;59.59
35704;BME280;21820;51.112;13.762;2023-06-26T01:09:20;99486.31;;;24.83;59.50
35704;BME280;21820;51.112;13.762;2023-06-26T01:11:46;99487.97;;;24.84;59.50
35704;BME280;21820;51.112;13.762;2023-06-26T01:14:12;99480.09;;;24.84;59.68
35704;BME280;21820;51.112;13.762;2023-06-26T01:16:39;99481.06;;;24.83;59.42
35704;BME280;21820;51.112;13.762;2023-06-26T01:19:15;99459.84;;;24.76;59.63
35704;BME280;21820;51.112;13.762;2023-06-26T01:21:50;99473.16;;;24.83;59.47
35704;BME280;21820;51.112;13.762;2023-06-26T01:24:17;99472.19;;;24.84;59.70
35704;BME280;21820;51.112;13.762;2023-06-26T01:26:49;99472.19;;;24.84;59.27
35704;BME280;21820;51.112;13.762;2023-06-26T01:29:16;99464.47;;;24.82;59.88
35704;BME280;21820;51.112;13.762;2023-06-26T01:31:44;99469.75;;;24.82;59.88
35704;BME280;21820;51.112;13.762;2023-06-26T01:34:13;99455.75;;;24.74;59.74
35704;BME280;21820;51.112;13.762;2023-06-26T01:36:39;99455.75;;;24.74;59.43
35704;BME280;21820;51.112;13.762;2023-06-26T01:39:04;99469.56;;;24.84;59.22
35704;BME280;21820;51.112;13.762;2023-06-26T01:41:30;99445.25;;;24.74;59.07
35704;BME280;21820;51.112;13.762;2023-06-26T01:46:41;99453.97;;;24.82;59.83
35704;BME280;21820;51.112;13.762;2023-06-26T01:51:42;99440.66;;;24.84;59.99
35704;BME280;21820;51.112;13.762;2023-06-26T01:54:12;99450.34;;;24.83;59.62
35704;BME280;21820;51.112;13.762;2023-06-26T01:56:39;99442.63;;;24.82;59.91
35704;BME280;21820;51.112;13.762;2023-06-26T01:59:06;99438.19;;;24.82;59.78
35704;BME280;21820;51.112;13.762;2023-06-26T02:01:32;99434.72;;;24.82;59.61
35704;BME280;21820;51.112;13.762;2023-06-26T02:03:59;99441.78;;;24.81;59.44
35704;BME280;21820;51.112;13.762;2023-06-26T02:06:24;99445.91;;;24.84;59.51
35704;BME280;21820;51.112;13.762;2023-06-26T02:08:50;99445.06;;;24.83;59.83
35704;BME280;21820;51.112;13.762;2023-06-26T02:11:15;99444.25;;;24.83;59.10
35704;BME280;21820;51.112;13.762;2023-06-26T02:13:40;99437.53;;;24.80;59.23
35704;BME280;21820;51.112;13.762;2023-06-26T02:16:06;99439.97;;;24.82;59.13
35704;BME280;21820;51.112;13.762;2023-06-26T02:18:31;99445.06;;;24.83;59.50
35704;BME280;21820;51.112;13.762;2023-06-26T02:20:56;99438.97;;;24.83;59.79
35704;BME280;21820;51.112;13.762;2023-06-26T02:23:22;99444.25;;;24.83;59.80
35704;BME280;21820;51.112;13.762;2023-06-26T02:25:47;99432.94;;;24.82;59.40
35704;BME280;21820;51.112;13.762;2023-06-26T02:28:12;99437.34;;;24.82;59.17
35704;BME280;21820;51.112;13.762;2023-06-26T02:30:38;99432.09;;;24.82;59.46
35704;BME280;21820;51.112;13.762;2023-06-26T02:33:03;99436.53;;;24.81;59.78
35704;BME280;21820;51.112;13.762;2023-06-26T02:35:28;99426.84;;;24.82;59.78
35704;BME280;21820;51.112;13.762;2023-06-26T02:37:54;99436.53;;;24.81;59.22
35704;BME280;21820;51.112;13.762;2023-06-26T02:40:19;99423.53;;;24.80;59.42
35704;BME280;21820;51.112;13.762;2023-06-26T02:42:44;99419.94;;;24.81;59.78
35704;BME280;21820;51.112;13.762;2023-06-26T02:45:10;99421.56;;;24.82;59.75
35704;BME280;21820;51.112;13.762;2023-06-26T02:47:35;99422.41;;;24.82;59.54
35704;BME280;21820;51.112;13.762;2023-06-26T02:50:05;99428.81;;;24.80;59.79
35704;BME280;21820;51.112;13.762;2023-06-26T02:52:30;99425.19;;;24.81;59.03
35704;BME280;21820;51.112;13.762;2023-06-26T02:54:56;99423.22;;;24.83;59.36
35704;BME280;21820;51.112;13.762;2023-06-26T02:57:21;99416.31;;;24.82;59.18
35704;BME280;21820;51.112;13.762;2023-06-26T02:59:47;99426.84;;;24.82;59.08
35704;BME280;21820;51.112;13.762;2023-06-26T03:02:12;99418.44;;;24.78;59.78
35704;BME280;21820;51.112;13.762;2023-06-26T03:04:37;99425.19;;;24.81;59.63
35704;BME280;21820;51.112;13.762;2023-06-26T03:07:03;99422.56;;;24.81;59.19
35704;BME280;21820;51.112;13.762;2023-06-26T03:09:29;99424.38;;;24.80;59.17
35704;BME280;21820;51.112;13.762;2023-06-26T03:11:54;99419.94;;;24.81;59.61
35704;BME280;21820;51.112;13.762;2023-06-26T03:14:20;99427.84;;;24.81;59.36
35704;BME280;21820;51.112;13.762;2023-06-26T03:16:46;99420.75;;;24.81;59.53
35704;BME280;21820;51.112;13.762;2023-06-26T03:19:11;99427.84;;;24.81;59.33
35704;BME280;21820;51.112;13.762;2023-06-26T03:21:36;99430.47;;;24.81;59.67
35704;BME280;21820;51.112;13.762;2023-06-26T03:24:02;99419.94;;;24.81;59.05
35704;BME280;21820;51.112;13.762;2023-06-26T03:26:27;99425.19;;;24.81;59.15
35704;BME280;21820;51.112;13.762;2023-06-26T03:28:54;99426.84;;;24.82;59.22
35704;BME280;21820;51.112;13.762;2023-06-26T03:31:19;99419.94;;;24.81;59.13
35704;BME280;21820;51.112;13.762;2023-06-26T03:33:45;99418.28;;;24.80;59.13
35704;BME280;21820;51.112;13.762;2023-06-26T03:36:11;99422.56;;;24.81;59.67
35704;BME280;21820;51.112;13.762;2023-06-26T03:38:36;99424.38;;;24.80;59.36
35704;BME280;21820;51.112;13.762;2023-06-26T03:41:02;99415.66;;;24.80;59.64
35704;BME280;21820;51.112;13.762;2023-06-26T03:43:27;99411.06;;;24.82;59.68
35704;BME280;21820;51.112;13.762;2023-06-26T03:45:53;99398.25;;;24.71;58.99
35704;BME280;21820;51.112;13.762;2023-06-26T03:48:18;99408.59;;;24.80;59.22
35704;BME280;21820;51.112;13.762;2023-06-26T03:50:44;99409.44;;;24.81;59.00
35704;BME280;21820;51.112;13.762;2023-06-26T03:53:09;99405.13;;;24.80;59.20
35704;BME280;21820;51.112;13.762;2023-06-26T03:55:34;99404.16;;;24.81;59.23
35704;BME280;21820;51.112;13.762;2023-06-26T03:58:00;99406.63;;;24.82;59.14
35704;BME280;21820;51.112;13.762;2023-06-26T04:00:25;99404.97;;;24.81;59.31
35704;BME280;21820;51.112;13.762;2023-06-26T04:02:50;99396.13;;;24.82;59.67
35704;BME280;21820;51.112;13.762;2023-06-26T04:05:16;99402.16;;;24.83;59.66
35704;BME280;21820;51.112;13.762;2023-06-26T04:07:42;99400.53;;;24.82;59.12
35704;BME280;21820;51.112;13.762;2023-06-26T04:10:08;99396.91;;;24.83;59.52
35704;BME280;21820;51.112;13.762;2023-06-26T04:12:33;99390.19;;;24.80;59.55
35704;BME280;21820;51.112;13.762;2023-06-26T04:14:59;99394.44;;;24.81;59.08
35704;BME280;21820;51.112;13.762;2023-06-26T04:17:24;99401.53;;;24.81;59.33
35704;BME280;21820;51.112;13.762;2023-06-26T04:19:49;99387.56;;;24.80;59.40
35704;BME280;21820;51.112;13.762;2023-06-26T04:22:15;99393.66;;;24.81;59.08
35704;BME280;21820;51.112;13.762;2023-06-26T04:24:40;99393.66;;;24.81;58.95
35704;BME280;21820;51.112;13.762;2023-06-26T04:27:05;99386.72;;;24.80;59.24
35704;BME280;21820;51.112;13.762;2023-06-26T04:29:31;99392.00;;;24.80;59.56
35704;BME280;21820;51.112;13.762;2023-06-26T04:31:56;99383.44;;;24.78;59.38
35704;BME280;21820;51.112;13.762;2023-06-26T04:34:26;99387.06;;;24.77;59.43
35704;BME280;21820;51.112;13.762;2023-06-26T04:36:51;99390.34;;;24.79;58.92
35704;BME280;21820;51.112;13.762;2023-06-26T04:39:17;99390.34;;;24.79;59.13
35704;BME280;21820;51.112;13.762;2023-06-26T04:41:42;99390.34;;;24.79;59.73
35704;BME280;21820;51.112;13.762;2023-06-26T04:44:08;99389.53;;;24.78;58.96
35704;BME280;21820;51.112;13.762;2023-06-26T04:46:33;99386.72;;;24.80;59.53
35704;BME280;21820;51.112;13.762;2023-06-26T04:48:58;99387.06;;;24.77;59.07
35704;BME280;21820;51.112;13.762;2023-06-26T04:51:25;99385.91;;;24.79;59.54
35704;BME280;21820;51.112;13.762;2023-06-26T04:53:52;99379.19;;;24.77;59.77
35704;BME280;21820;51.112;13.762;2023-06-26T04:56:17;99371.97;;;24.71;59.22
35704;BME280;21820;51.112;13.762;2023-06-26T04:58:43;99384.09;;;24.80;59.02
35704;BME280;21820;51.112;13.762;2023-06-26T05:01:08;99386.56;;;24.81;58.95
35704;BME280;21820;51.112;13.762;2023-06-26T05:03:33;99378.84;;;24.80;59.71
35704;BME280;21820;51.112;13.762;2023-06-26T05:05:59;99381.47;;;24.80;59.62
35704;BME280;21820;51.112;13.762;2023-06-26T05:08:25;99376.53;;;24.77;59.59
35704;BME280;21820;51.112;13.762;2023-06-26T05:10:52;99374.56;;;24.79;59.04
35704;BME280;21820;51.112;13.762;2023-06-26T05:13:18;99376.53;;;24.77;59.59
35704;BME280;21820;51.112;13.762;2023-06-26T05:15:45;99365.03;;;24.78;59.84
35704;BME280;21820;51.112;13.762;2023-06-26T05:18:11;99370.94;;;24.80;59.37
35704;BME280;21820;51.112;13.762;2023-06-26T05:20:37;99368.31;;;24.80;59.67
35704;BME280;21820;51.112;13.762;2023-06-26T05:23:03;99372.63;;;24.81;59.77
35704;BME280;21820;51.112;13.762;2023-06-26T05:25:30;99364.06;;;24.79;59.51
35704;BME280;21820;51.112;13.762;2023-06-26T05:27:57;99364.88;;;24.79;59.30
35704;BME280;21820;51.112;13.762;2023-06-26T05:30:23;99351.56;;;24.73;59.71
35704;BME280;21820;51.112;13.762;2023-06-26T05:32:51;99365.69;;;24.80;59.39
35704;BME280;21820;51.112;13.762;2023-06-26T05:35:17;99357.81;;;24.80;59.18
35704;BME280;21820;51.112;13.762;2023-06-26T05:37:43;99359.47;;;24.81;59.22
35704;BME280;21820;51.112;13.762;2023-06-26T05:40:09;99336.78;;;24.72;59.17
35704;BME280;21820;51.112;13.762;2023-06-26T05:42:35;99344.66;;;24.80;59.63
35704;BME280;21820;51.112;13.762;2023-06-26T05:45:01;99340.06;;;24.82;58.91
35704;BME280;21820;51.112;13.762;2023-06-26T05:47:26;99345.31;;;24.82;59.63
35704;BME280;21820;51.112;13.762;2023-06-26T05:49:51;99342.69;;;24.82;59.29
35704;BME280;21820;51.112;13.762;2023-06-26T05:52:17;99337.44;;;24.82;58.93
35704;BME280;21820;51.112;13.762;2023-06-26T05:54:43;99344.81;;;24.86;59.58
35704;BME280;21820;51.112;13.762;2023-06-26T05:57:08;99341.22;;;24.87;59.27
35704;BME280;21820;51.112;13.762;2023-06-26T05:59:36;99323.97;;;24.77;59.49
35704;BME280;21820;51.112;13.762;2023-06-26T06:02:02;99341.84;;;24.89;58.96
35704;BME280;21820;51.112;13.762;2023-06-26T06:04:27;99337.72;;;24.95;59.01
35704;BME280;21820;51.112;13.762;2023-06-26T06:06:53;99340.53;;;24.93;58.99
35704;BME280;21820;51.112;13.762;2023-06-26T06:09:18;99339.88;;;24.91;59.57
35704;BME280;21820;51.112;13.762;2023-06-26T06:11:43;99336.75;;;24.88;58.97
35704;BME280;21820;51.112;13.762;2023-06-26T06:14:09;99340.38;;;24.87;59.35
35704;BME280;21820;51.112;13.762;2023-06-26T06:16:34;99331.66;;;24.86;59.84
35704;BME280;21820;51.112;13.762;2023-06-26T06:18:59;99333.50;;;24.86;59.23
35704;BME280;21820;51.112;13.762;2023-06-26T06:21:25;99329.03;;;24.86;59.51
35704;BME280;21820;51.112;13.762;2023-06-26T06:23:50;99328.22;;;24.86;59.16
35704;BME280;21820;51.112;13.762;2023-06-26T06:26:15;99323.78;;;24.86;59.31
35704;BME280;21820;51.112;13.762;2023-06-26T06:28:41;99322.97;;;24.86;59.15
35704;BME280;21820;51.112;13.762;2023-06-26T06:31:06;99325.59;;;24.86;59.84
35704;BME280;21820;51.112;13.762;2023-06-26T06:33:31;99320.34;;;24.86;59.83
35704;BME280;21820;51.112;13.762;2023-06-26T06:35:57;99326.22;;;24.88;59.13
35704;BME280;21820;51.112;13.762;2023-06-26T06:38:22;99321.97;;;24.87;59.79
35704;BME280;21820;51.112;13.762;2023-06-26T06:40:48;99329.03;;;24.86;59.24
35704;BME280;21820;51.112;13.762;2023-06-26T06:43:13;99302.94;;;24.77;59.24
35704;BME280;21820;51.112;13.762;2023-06-26T06:45:38;99305.56;;;24.77;59.24
35704;BME280;21820;51.112;13.762;2023-06-26T06:48:04;99318.50;;;24.86;59.88
35704;BME280;21820;51.112;13.762;2023-06-26T06:50:30;99316.88;;;24.85;59.57
35704;BME280;21820;51.112;13.762;2023-06-26T06:52:56;99315.06;;;24.78;59.19
35704;BME280;21820;51.112;13.762;2023-06-26T06:55:21;99317.88;;;24.60;60.30
35704;BME280;21820;51.112;13.762;2023-06-26T06:57:47;99312.59;;;24.60;60.44
35704;BME280;21820;51.112;13.762;2023-06-26T07:00:13;99316.56;;;24.72;60.58
35704;BME280;21820;51.112;13.762;2023-06-26T07:02:45;99313.28;;;24.78;60.28
35704;BME280;21820;51.112;13.762;2023-06-26T07:05:12;99310.31;;;24.81;60.17
35704;BME280;21820;51.112;13.762;2023-06-26T07:07:37;99310.78;;;24.85;59.75
35704;BME280;21820;51.112;13.762;2023-06-26T07:10:05;99310.78;;;24.85;60.24
35704;BME280;21820;51.112;13.762;2023-06-26T07:12:31;99303.06;;;24.83;59.52
35704;BME280;21820;51.112;13.762;2023-06-26T07:14:57;99303.56;;;24.87;59.24
35704;BME280;21820;51.112;13.762;2023-06-26T07:17:22;99306.84;;;24.89;59.64
35704;BME280;21820;51.112;13.762;2023-06-26T07:19:49;99299.94;;;24.88;59.80
35704;BME280;21820;51.112;13.762;2023-06-26T07:22:15;99298.31;;;24.87;59.91
35704;BME280;21820;51.112;13.762;2023-06-26T07:24:40;99296.69;;;24.86;59.95
35704;BME280;21820;51.112;13.762;2023-06-26T07:27:05;99307.66;;;24.89;59.90
35704;BME280;21820;51.112;13.762;2023-06-26T07:29:31;99305.84;;;24.90;59.84
35704;BME280;21820;51.112;13.762;2023-06-26T07:31:56;99300.94;;;24.87;59.33
35704;BME280;21820;51.112;13.762;2023-06-26T07:34:22;99299.13;;;24.87;59.88
35704;BME280;21820;51.112;13.762;2023-06-26T07:36:47;99299.59;;;24.91;59.38
35704;BME280;21820;51.112;13.762;2023-06-26T07:39:12;99281.88;;;24.77;59.45
35704;BME280;21820;51.112;13.762;2023-06-26T07:41:38;99296.69;;;24.86;59.22
35704;BME280;21820;51.112;13.762;2023-06-26T07:44:03;99292.22;;;24.86;59.62
35704;BME280;21820;51.112;13.762;2023-06-26T07:46:28;99286.97;;;24.86;59.86
35704;BME280;21820;51.112;13.762;2023-06-26T07:48:54;99295.16;;;24.91;59.31
35704;BME280;21820;51.112;13.762;2023-06-26T07:51:20;99294.66;;;24.88;59.43
35704;BME280;21820;51.112;13.762;2023-06-26T07:53:45;99279.56;;;24.82;59.56
35704;BME280;21820;51.112;13.762;2023-06-26T07:56:10;99289.72;;;24.93;59.45
35704;BME280;21820;51.112;13.762;2023-06-26T07:58:36;99272.03;;;24.79;59.31
35704;BME280;21820;51.112;13.762;2023-06-26T08:01:01;99291.56;;;24.92;59.52
35704;BME280;21820;51.112;13.762;2023-06-26T08:03:27;99287.28;;;24.91;59.93
35704;BME280;21820;51.112;13.762;2023-06-26T08:05:52;99287.09;;;24.93;59.23
35704;BME280;21820;51.112;13.762;2023-06-26T08:08:17;99284.81;;;24.90;59.13
35704;BME280;21820;51.112;13.762;2023-06-26T08:10:43;99283.81;;;24.91;59.59
35704;BME280;21820;51.112;13.762;2023-06-26T08:13:08;99280.22;;;24.92;59.18
35704;BME280;21820;51.112;13.762;2023-06-26T08:15:34;99285.31;;;24.93;59.38
35704;BME280;21820;51.112;13.762;2023-06-26T08:17:59;99281.84;;;24.93;59.51
35704;BME280;21820;51.112;13.762;2023-06-26T08:20:24;99274.94;;;24.92;59.67
35704;BME280;21820;51.112;13.762;2023-06-26T08:22:50;99281.19;;;24.91;59.69
35704;BME280;21820;51.112;13.762;2023-06-26T08:25:17;99273.47;;;24.89;59.76
35704;BME280;21820;51.112;13.762;2023-06-26T08:27:43;99269.88;;;24.90;59.81
35704;BME280;21820;51.112;13.762;2023-06-26T08:30:08;99264.44;;;24.92;59.19
35704;BME280;21820;51.112;13.762;2023-06-26T08:32:34;99266.41;;;24.90;59.65
35704;BME280;21820;51.112;13.762;2023-06-26T08:34:59;99266.41;;;24.90;59.28
35704;BME280;21820;51.112;13.762;2023-06-26T08:37:25;99240.78;;;24.84;59.06
35704;BME280;21820;51.112;13.762;2023-06-26T08:39:50;99264.44;;;24.92;59.26
35704;BME280;21820;51.112;13.762;2023-06-26T08:42:16;99267.72;;;24.94;59.71
35704;BME280;21820;51.112;13.762;2023-06-26T08:44:41;99257.50;;;24.91;59.36
35704;BME280;21820;51.112;13.762;2023-06-26T08:47:07;99258.50;;;24.90;58.96
35704;BME280;21820;51.112;13.762;2023-06-26T08:52:36;99242.44;;;24.85;59.42
35704;BME280;21820;51.112;13.762;2023-06-26T08:55:06;99256.53;;;24.92;59.41
35704;BME280;21820;51.112;13.762;2023-06-26T08:57:34;99257.06;;;24.87;59.60
35704;BME280;21820;51.112;13.762;2023-06-26T09:00:00;99250.63;;;24.90;58.93
35704;BME280;21820;51.112;13.762;2023-06-26T09:02:26;99240.47;;;24.79;59.41
35704;BME280;21820;51.112;13.762;2023-06-26T09:04:51;99249.00;;;24.89;59.21
35704;BME280;21820;51.112;13.762;2023-06-26T09:07:17;99248.81;;;24.90;59.51
35704;BME280;21820;51.112;13.762;2023-06-26T09:09:43;99249.00;;;24.89;59.33
35704;BME280;21820;51.112;13.762;2023-06-26T09:12:08;99230.28;;;24.84;59.17
35704;BME280;21820;51.112;13.762;2023-06-26T09:14:35;99245.03;;;24.93;59.48
35704;BME280;21820;51.112;13.762;2023-06-26T09:17:01;99236.03;;;24.87;58.92
35704;BME280;21820;51.112;13.762;2023-06-26T09:19:27;99229.94;;;24.87;58.49
35704;BME280;21820;51.112;13.762;2023-06-26T09:21:52;99240.44;;;24.87;58.75
35704;BME280;21820;51.112;13.762;2023-06-26T09:24:19;99236.03;;;24.87;58.93
35704;BME280;21820;51.112;13.762;2023-06-26T09:26:46;99240.75;;;24.92;59.38
35704;BME280;21820;51.112;13.762;2023-06-26T09:29:13;99236.81;;;24.88;59.08
35704;BME280;21820;51.112;13.762;2023-06-26T09:31:39;99220.91;;;24.81;59.16
35704;BME280;21820;51.112;13.762;2023-06-26T09:34:05;99226.31;;;24.88;59.53
35704;BME280;21820;51.112;13.762;2023-06-26T09:36:32;99239.75;;;24.93;58.92
35704;BME280;21820;51.112;13.762;2023-06-26T09:39:01;99216.47;;;24.82;59.72
35704;BME280;21820;51.112;13.762;2023-06-26T09:41:27;99237.31;;;24.91;59.28
35704;BME280;21820;51.112;13.762;2023-06-26T09:43:53;99230.75;;;24.87;58.98
35704;BME280;21820;51.112;13.762;2023-06-26T09:46:27;99234.03;;;24.89;59.31
35704;BME280;21820;51.112;13.762;2023-06-26T09:51:32;99222.03;;;24.87;59.38
35704;BME280;21820;51.112;13.762;2023-06-26T09:54:02;99216.59;;;24.88;59.12
35704;BME280;21820;51.112;13.762;2023-06-26T09:56:29;99215.78;;;24.88;59.94
35704;BME280;21820;51.112;13.762;2023-06-26T09:59:01;99208.91;;;24.87;59.48
35704;BME280;21820;51.112;13.762;2023-06-26T10:01:27;99219.41;;;24.87;59.13
35704;BME280;21820;51.112;13.762;2023-06-26T10:03:54;99215.78;;;24.88;59.45
35704;BME280;21820;51.112;13.762;2023-06-26T10:06:33;99210.19;;;24.91;59.53
35704;BME280;21820;51.112;13.762;2023-06-26T10:09:00;99209.38;;;24.90;59.51
35704;BME280;21820;51.112;13.762;2023-06-26T10:11:43;99208.91;;;24.87;59.84
35704;BME280;21820;51.112;13.762;2023-06-26T10:14:11;99208.06;;;24.86;59.34
35704;BME280;21820;51.112;13.762;2023-06-26T10:16:39;99205.25;;;24.88;59.82
35704;BME280;21820;51.112;13.762;2023-06-26T10:19:08;99199.03;;;24.89;59.17
35704;BME280;21820;51.112;13.762;2023-06-26T10:21:38;99195.75;;;24.87;59.31
35704;BME280;21820;51.112;13.762;2023-06-26T10:24:08;99202.81;;;24.86;59.92
35704;BME280;21820;51.112;13.762;2023-06-26T10:26:43;99192.94;;;24.88;59.16
35704;BME280;21820;51.112;13.762;2023-06-26T10:29:09;99186.38;;;24.84;59.40
35704;BME280;21820;51.112;13.762;2023-06-26T10:31:35;99195.72;;;24.95;59.22
35704;BME280;21820;51.112;13.762;2023-06-26T10:34:03;99189.13;;;24.91;59.37
35704;BME280;21820;51.112;13.762;2023-06-26T10:36:30;99191.75;;;24.91;59.26
35704;BME280;21820;51.112;13.762;2023-06-26T10:38:58;99173.09;;;24.78;58.91
35704;BME280;21820;51.112;13.762;2023-06-26T10:41:24;99186.22;;;24.86;59.24
35704;BME280;21820;51.112;13.762;2023-06-26T10:44:06;99171.13;;;24.80;59.33
35704;BME280;21820;51.112;13.762;2023-06-26T10:46:54;99179.78;;;24.88;59.54
35704;BME280;21820;51.112;13.762;2023-06-26T10:49:30;99182.59;;;24.87;58.70
35704;BME280;21820;51.112;13.762;2023-06-26T10:51:55;99182.59;;;24.87;58.92
35704;BME280;21820;51.112;13.762;2023-06-26T10:54:29;99175.72;;;24.86;58.93
35704;BME280;21820;51.112;13.762;2023-06-26T10:56:55;99168.78;;;24.85;59.38
35704;BME280;21820;51.112;13.762;2023-06-26T10:59:25;99174.72;;;24.87;59.25
35704;BME280;21820;51.112;13.762;2023-06-26T11:02:01;99181.78;;;24.86;58.94
35704;BME280;21820;51.112;13.762;2023-06-26T11:04:40;99166.34;;;24.83;59.45
35704;BME280;21820;51.112;13.762;2023-06-26T11:07:25;99171.72;;;24.90;59.23
35704;BME280;21820;51.112;13.762;2023-06-26T11:12:40;99170.91;;;24.89;58.88
35704;BME280;21820;51.112;13.762;2023-06-26T11:15:14;99155.47;;;24.86;59.13
35704;BME280;21820;51.112;13.762;2023-06-26T11:17:40;99170.44;;;24.86;59.46
35704;BME280;21820;51.112;13.762;2023-06-26T11:20:08;99160.72;;;24.86;59.19
35704;BME280;21820;51.112;13.762;2023-06-26T11:22:35;99158.44;;;24.83;59.47
35704;BME280;21820;51.112;13.762;2023-06-26T11:25:02;99165.19;;;24.86;59.06
35704;BME280;21820;51.112;13.762;2023-06-26T11:30:03;99153.19;;;24.83;58.92
35704;BME280;21820;51.112;13.762;2023-06-26T11:32:28;99157.63;;;24.83;59.00
35704;BME280;21820;51.112;13.762;2023-06-26T11:34:54;99165.19;;;24.86;58.47
35704;BME280;21820;51.112;13.762;2023-06-26T11:37:20;99158.94;;;24.87;58.75
35704;BME280;21820;51.112;13.762;2023-06-26T11:39:46;99144.16;;;24.86;58.71
35704;BME280;21820;51.112;13.762;2023-06-26T11:42:11;99154.69;;;24.86;58.83
35704;BME280;21820;51.112;13.762;2023-06-26T11:44:41;99136.94;;;24.80;59.45
35704;BME280;21820;51.112;13.762;2023-06-26T11:47:10;99138.91;;;24.86;58.92
35704;BME280;21820;51.112;13.762;2023-06-26T11:49:36;99139.69;;;24.86;59.46
35704;BME280;21820;51.112;13.762;2023-06-26T11:52:02;99139.53;;;24.88;59.38
35704;BME280;21820;51.112;13.762;2023-06-26T11:54:28;99129.03;;;24.80;58.65
35704;BME280;21820;51.112;13.762;2023-06-26T11:56:58;99142.16;;;24.88;59.26
35704;BME280;21820;51.112;13.762;2023-06-26T11:59:24;99140.69;;;24.85;59.36
35704;BME280;21820;51.112;13.762;2023-06-26T12:01:50;99136.22;;;24.94;58.93
35704;BME280;21820;51.112;13.762;2023-06-26T12:04:18;99140.19;;;24.90;58.47
35704;BME280;21820;51.112;13.762;2023-06-26T12:06:49;99141.53;;;24.86;58.71
35704;BME280;21820;51.112;13.762;2023-06-26T12:09:17;99133.63;;;24.86;59.38
35704;BME280;21820;51.112;13.762;2023-06-26T12:11:44;99133.63;;;24.86;58.54
35704;BME280;21820;51.112;13.762;2023-06-26T12:14:11;99124.75;;;24.87;58.69
35704;BME280;21820;51.112;13.762;2023-06-26T12:16:37;99123.13;;;24.86;58.79
35704;BME280;21820;51.112;13.762;2023-06-26T12:19:05;99138.91;;;24.86;58.60
35704;BME280;21820;51.112;13.762;2023-06-26T12:24:00;99126.72;;;24.85;59.14
35704;BME280;21820;51.112;13.762;2023-06-26T12:26:26;99124.09;;;24.85;58.55
35704;BME280;21820;51.112;13.762;2023-06-26T12:28:53;99102.28;;;24.76;58.80
35704;BME280;21820;51.112;13.762;2023-06-26T12:31:20;99110.59;;;24.88;58.46
35704;BME280;21820;51.112;13.762;2023-06-26T12:33:46;99109.78;;;24.87;59.17
35704;BME280;21820;51.112;13.762;2023-06-26T12:36:12;99100.06;;;24.88;59.10
35704;BME280;21820;51.112;13.762;2023-06-26T12:38:37;99100.06;;;24.88;58.54
35704;BME280;21820;51.112;13.762;2023-06-26T12:41:03;99094.19;;;24.86;58.99
35704;BME280;21820;51.112;13.762;2023-06-26T12:43:28;99089.31;;;24.75;58.79
35704;BME280;21820;51.112;13.762;2023-06-26T12:45:57;99100.06;;;24.88;59.13
35704;BME280;21820;51.112;13.762;2023-06-26T12:48:39;99081.72;;;24.80;58.74
35704;BME280;21820;51.112;13.762;2023-06-26T12:51:10;99090.38;;;24.88;58.52
35704;BME280;21820;51.112;13.762;2023-06-26T12:53:36;99083.38;;;24.81;58.98
35704;BME280;21820;51.112;13.762;2023-06-26T12:56:02;99086.75;;;24.89;58.87
35704;BME280;21820;51.112;13.762;2023-06-26T12:58:28;99089.56;;;24.88;58.60
35704;BME280;21820;51.112;13.762;2023-06-26T13:00:53;99087.56;;;24.90;58.47
35704;BME280;21820;51.112;13.762;2023-06-26T13:03:19;99081.50;;;24.89;59.28
35704;BME280;21820;51.112;13.762;2023-06-26T13:05:46;99084.94;;;24.90;59.19